createdAt,value
2023-01-13T00:00:24.388Z,100768.41
2023-01-13T00:03:26.817Z,100767.66
2023-01-13T00:06:29.494Z,100761.69
2023-01-13T00:09:37.153Z,100751.72
2023-01-13T00:12:41.068Z,100766.66
2023-01-13T00:15:43.642Z,100771.53
2023-01-13T00:18:47.409Z,100766.91
2023-01-13T00:21:49.812Z,100763.31
2023-01-13T00:24:52.216Z,100749.97
2023-01-13T00:27:54.581Z,100762.16
2023-01-13T00:31:04.059Z,100756.53
2023-01-13T00:34:06.503Z,100755.59
2023-01-13T00:37:12.912Z,100763.28
2023-01-13T00:40:15.336Z,100756.91
2023-01-13T00:43:23.326Z,100767.50
2023-01-13T00:46:25.922Z,100766.38
2023-01-13T00:49:28.625Z,100766.53
2023-01-13T00:52:32.977Z,100768.72
2023-01-13T00:55:35.403Z,100770.94
2023-01-13T00:58:38.038Z,100763.50
2023-01-13T01:01:41.577Z,100757.53
2023-01-13T01:04:44.209Z,100759.31
2023-01-13T01:07:46.654Z,100758.06
2023-01-13T01:10:49.454Z,100761.66
2023-01-13T01:13:53.955Z,100751.94
2023-01-13T01:16:56.335Z,100747.41
2023-01-13T01:19:58.765Z,100741.59
2023-01-13T01:23:01.264Z,100737.72
2023-01-13T01:26:09.109Z,100741.50
2023-01-13T01:29:13.981Z,100736.97
2023-01-13T01:32:16.387Z,100728.88
2023-01-13T01:35:18.732Z,100733.56
2023-01-13T01:38:23.356Z,100727.47
2023-01-13T01:41:28.778Z,100725.28
2023-01-13T01:44:43.259Z,100725.84
2023-01-13T01:47:49.588Z,100721.72
2023-01-13T01:50:53.163Z,100719.69
2023-01-13T01:53:56.979Z,100723.16
2023-01-13T01:56:59.632Z,100718.84
2023-01-13T02:00:05.012Z,100714.03
2023-01-13T02:03:16.440Z,100704.63
2023-01-13T02:06:19.357Z,100709.88
2023-01-13T02:09:21.765Z,100713.09
2023-01-13T02:12:29.559Z,100714.34
2023-01-13T02:15:52.932Z,100714.50
2023-01-13T02:19:16.530Z,100705.47
2023-01-13T02:23:29.716Z,100705.91
2023-01-13T02:26:49.834Z,100698.84
2023-01-13T02:30:29.822Z,100693.84
2023-01-13T02:34:01.680Z,100696.22
2023-01-13T02:37:11.927Z,100695.09
2023-01-13T02:40:26.747Z,100704.38
2023-01-13T02:43:55.177Z,100691.06
2023-01-13T02:47:20.446Z,100693.00
2023-01-13T02:50:30.734Z,100682.88
2023-01-13T02:53:41.546Z,100680.81
2023-01-13T02:56:47.773Z,100685.66
2023-01-13T02:59:53.119Z,100679.81
2023-01-13T03:02:55.742Z,100679.16
2023-01-13T03:06:29.864Z,100677.59
2023-01-13T03:09:55.420Z,100675.53
2023-01-13T03:13:20.802Z,100675.81
2023-01-13T03:16:31.808Z,100674.81
2023-01-13T03:20:06.949Z,100673.75
2023-01-13T03:23:30.266Z,100669.84
2023-01-13T03:26:51.194Z,100673.47
2023-01-13T03:30:27.064Z,100670.84
2023-01-13T03:33:41.657Z,100670.13
2023-01-13T03:36:49.313Z,100667.78
2023-01-13T03:39:57.850Z,100667.63
2023-01-13T03:43:24.620Z,100653.63
2023-01-13T03:46:35.043Z,100658.06
2023-01-13T03:49:54.042Z,100652.66
2023-01-13T03:53:02.839Z,100655.28
2023-01-13T03:56:12.912Z,100652.50
2023-01-13T03:59:24.186Z,100659.84
2023-01-13T04:02:48.684Z,100659.03
2023-01-13T04:05:58.280Z,100649.19
2023-01-13T04:09:13.263Z,100666.94
2023-01-13T04:12:51.810Z,100679.16
2023-01-13T04:15:54.873Z,100677.34
2023-01-13T04:18:57.422Z,100665.56
2023-01-13T04:21:59.959Z,100657.53
2023-01-13T04:25:02.432Z,100647.28
2023-01-13T04:28:05.084Z,100663.31
2023-01-13T04:31:07.738Z,100667.09
2023-01-13T04:34:10.806Z,100668.34
2023-01-13T04:37:13.301Z,100670.00
2023-01-13T04:40:16.698Z,100680.41
2023-01-13T04:43:19.136Z,100679.41
2023-01-13T04:46:21.555Z,100673.59
2023-01-13T04:49:24.208Z,100670.16
2023-01-13T04:52:26.923Z,100677.34
2023-01-13T04:55:29.675Z,100669.44
2023-01-13T04:58:32.151Z,100674.44
2023-01-13T05:01:34.768Z,100681.25
2023-01-13T05:04:37.328Z,100681.78
2023-01-13T05:07:39.901Z,100690.94
2023-01-13T05:10:42.962Z,100681.38
2023-01-13T05:14:03.678Z,100672.63
2023-01-13T05:17:09.065Z,100673.75
2023-01-13T05:20:12.736Z,100685.09
2023-01-13T05:23:33.600Z,100671.09
2023-01-13T05:26:36.129Z,100683.44
2023-01-13T05:29:38.664Z,100687.84
2023-01-13T05:32:41.340Z,100684.13
2023-01-13T05:35:45.758Z,100704.09
2023-01-13T05:38:48.228Z,100684.97
2023-01-13T05:42:08.865Z,100691.47
2023-01-13T05:45:12.303Z,100688.41
2023-01-13T05:48:15.461Z,100686.03
2023-01-13T05:51:19.776Z,100683.56
2023-01-13T05:54:22.321Z,100688.38
2023-01-13T05:57:24.799Z,100680.09
2023-01-13T06:00:27.609Z,100689.63
2023-01-13T06:03:30.131Z,100684.91
2023-01-13T06:06:32.855Z,100686.16
2023-01-13T06:09:36.394Z,100693.53
2023-01-13T06:12:38.890Z,100687.00
2023-01-13T06:15:41.329Z,100685.06
2023-01-13T06:18:43.837Z,100697.28
2023-01-13T06:21:46.480Z,100696.47
2023-01-13T06:24:56.036Z,100700.50
2023-01-13T06:27:59.972Z,100696.03
2023-01-13T06:31:07.485Z,100691.75
2023-01-13T06:34:14.121Z,100698.25
2023-01-13T06:37:20.227Z,100690.22
2023-01-13T06:40:24.147Z,100700.75
2023-01-13T06:43:26.897Z,100704.91
2023-01-13T06:46:29.528Z,100701.44
2023-01-13T06:49:32.291Z,100706.03
2023-01-13T06:52:34.879Z,100712.81
2023-01-13T06:55:37.475Z,100714.06
2023-01-13T06:58:40.405Z,100719.63
2023-01-13T07:01:43.575Z,100722.69
2023-01-13T07:04:46.978Z,100718.13
2023-01-13T07:07:49.505Z,100714.50
2023-01-13T07:10:53.152Z,100720.22
2023-01-13T07:14:17.493Z,100718.41
2023-01-13T07:17:25.381Z,100717.00
2023-01-13T07:20:31.351Z,100724.50
2023-01-13T07:23:36.953Z,100718.91
2023-01-13T07:26:39.536Z,100722.97
2023-01-13T07:29:42.057Z,100720.31
2023-01-13T07:32:44.775Z,100720.16
2023-01-13T07:35:55.365Z,100729.13
2023-01-13T07:38:57.994Z,100714.91
2023-01-13T07:42:19.259Z,100702.91
2023-01-13T07:45:22.007Z,100719.09
2023-01-13T07:48:25.220Z,100716.81
2023-01-13T07:51:28.055Z,100713.16
2023-01-13T07:54:40.024Z,100721.94
2023-01-13T07:57:48.773Z,100727.31
2023-01-13T08:00:53.283Z,100729.06
2023-01-13T08:03:56.381Z,100732.75
2023-01-13T08:06:58.904Z,100733.16
2023-01-13T08:10:02.445Z,100730.81
2023-01-13T08:13:21.174Z,100735.41
2023-01-13T08:16:24.302Z,100739.56
2023-01-13T08:19:26.922Z,100738.13
2023-01-13T08:22:31.123Z,100745.97
2023-01-13T08:25:33.636Z,100747.44
2023-01-13T08:28:36.555Z,100754.16
2023-01-13T08:31:39.276Z,100753.25
2023-01-13T08:34:42.102Z,100752.78
2023-01-13T08:37:46.045Z,100755.56
2023-01-13T08:40:48.849Z,100750.44
2023-01-13T08:43:53.774Z,100755.44
2023-01-13T08:46:58.815Z,100756.34
2023-01-13T08:50:01.472Z,100765.16
2023-01-13T08:53:04.096Z,100765.31
2023-01-13T08:56:11.023Z,100765.69
2023-01-13T08:59:15.753Z,100765.41
2023-01-13T09:02:21.083Z,100763.50
2023-01-13T09:05:23.923Z,100763.13
2023-01-13T09:08:26.524Z,100752.72
2023-01-13T09:11:53.294Z,100763.59
2023-01-13T09:14:59.264Z,100763.19
2023-01-13T09:18:02.750Z,100742.75
2023-01-13T09:21:05.618Z,100746.75
2023-01-13T09:24:08.742Z,100749.22
2023-01-13T09:27:12.801Z,100740.47
2023-01-13T09:30:16.720Z,100743.28
2023-01-13T09:33:37.499Z,100728.50
2023-01-13T09:36:40.322Z,100750.09
2023-01-13T09:39:43.229Z,100746.72
2023-01-13T09:43:19.530Z,100743.66
2023-01-13T09:46:47.521Z,100740.66
2023-01-13T09:49:51.041Z,100752.31
2023-01-13T09:52:53.790Z,100745.00
2023-01-13T09:55:56.538Z,100752.47
2023-01-13T09:58:59.085Z,100745.47
2023-01-13T10:02:26.004Z,100744.22
2023-01-13T10:05:52.974Z,100749.69
2023-01-13T10:09:42.923Z,100744.16
2023-01-13T10:13:11.661Z,100734.66
2023-01-13T10:16:21.413Z,100734.59
2023-01-13T10:20:10.504Z,100735.06
2023-01-13T10:23:22.109Z,100734.13
2023-01-13T10:26:46.207Z,100738.19
2023-01-13T10:29:48.787Z,100725.41
2023-01-13T10:32:57.563Z,100724.13
2023-01-13T10:36:02.531Z,100727.06
2023-01-13T10:39:16.205Z,100722.19
2023-01-13T10:42:22.049Z,100712.88
2023-01-13T10:45:26.030Z,100709.78
2023-01-13T10:48:33.537Z,100695.31
2023-01-13T10:51:38.839Z,100707.22
2023-01-13T10:54:52.179Z,100697.91
2023-01-13T10:57:54.907Z,100694.69
2023-01-13T11:01:04.836Z,100689.34
2023-01-13T11:04:27.740Z,100678.22
2023-01-13T11:07:34.977Z,100677.91
2023-01-13T11:10:47.108Z,100672.63
2023-01-13T11:14:12.556Z,100671.06
2023-01-13T11:17:22.533Z,100684.06
2023-01-13T11:20:32.562Z,100691.84
2023-01-13T11:23:47.483Z,100677.31
2023-01-13T11:27:03.776Z,100672.31
2023-01-13T11:30:09.998Z,100677.50
2023-01-13T11:33:27.443Z,100675.97
2023-01-13T11:37:00.012Z,100657.03
2023-01-13T11:40:05.988Z,100648.13
2023-01-13T11:43:32.543Z,100649.94
2023-01-13T11:46:35.437Z,100647.13
2023-01-13T11:49:38.788Z,100640.66
2023-01-13T11:52:41.536Z,100623.38
2023-01-13T11:56:05.126Z,100618.06
2023-01-13T11:59:25.016Z,100600.13
2023-01-13T12:02:27.551Z,100607.63
2023-01-13T12:05:39.134Z,100603.41
2023-01-13T12:08:47.829Z,100600.97
2023-01-13T12:12:20.063Z,100597.50
2023-01-13T12:15:22.638Z,100598.22
2023-01-13T12:18:51.472Z,100588.00
2023-01-13T12:22:02.390Z,100581.88
2023-01-13T12:25:21.757Z,100583.88
2023-01-13T12:28:32.546Z,100592.97
2023-01-13T12:31:38.675Z,100597.84
2023-01-13T12:35:09.190Z,100591.22
2023-01-13T12:38:44.380Z,100598.16
2023-01-13T12:42:20.252Z,100604.25
2023-01-13T12:45:27.004Z,100603.97
2023-01-13T12:48:53.090Z,100601.56
2023-01-13T12:51:55.784Z,100605.19
2023-01-13T12:54:58.524Z,100596.63
2023-01-13T12:58:07.002Z,100601.09
2023-01-13T13:01:15.001Z,100599.44
2023-01-13T13:04:38.812Z,100600.25
2023-01-13T13:07:46.102Z,100603.91
2023-01-13T13:11:34.116Z,100608.56
2023-01-13T13:14:39.471Z,100618.84
2023-01-13T13:17:42.842Z,100606.38
2023-01-13T13:21:03.970Z,100604.88
2023-01-13T13:24:11.159Z,100598.25
2023-01-13T13:27:28.869Z,100599.41
2023-01-13T13:30:37.224Z,100590.94
2023-01-13T13:33:49.230Z,100596.88
2023-01-13T13:37:26.674Z,100603.03
2023-01-13T13:40:52.339Z,100594.59
2023-01-13T13:44:18.670Z,100594.59
2023-01-13T13:47:21.659Z,100604.78
2023-01-13T13:50:24.582Z,100608.22
2023-01-13T13:53:30.066Z,100622.81
2023-01-13T13:56:38.903Z,100626.16
2023-01-13T13:59:41.366Z,100632.13
2023-01-13T14:02:54.192Z,100624.34
2023-01-13T14:06:07.184Z,100620.66
2023-01-13T14:09:16.708Z,100617.50
2023-01-13T14:12:24.777Z,100612.00
2023-01-13T14:15:33.992Z,100626.91
2023-01-13T14:18:47.799Z,100616.31
2023-01-13T14:21:50.359Z,100623.44
2023-01-13T14:24:57.544Z,100612.38
2023-01-13T14:28:08.100Z,100599.78
2023-01-13T14:31:12.827Z,100609.06
2023-01-13T14:34:32.106Z,100622.84
2023-01-13T14:37:39.081Z,100620.03
2023-01-13T14:40:45.752Z,100628.44
2023-01-13T14:43:50.579Z,100632.97
2023-01-13T14:46:58.751Z,100637.09
2023-01-13T14:50:06.475Z,100635.50
2023-01-13T14:53:29.335Z,100628.69
2023-01-13T14:56:49.936Z,100626.50
2023-01-13T14:59:57.428Z,100622.84
2023-01-13T15:03:07.274Z,100624.50
2023-01-13T15:06:24.935Z,100622.03
2023-01-13T15:09:33.923Z,100608.13
2023-01-13T15:12:39.781Z,100615.41
2023-01-13T15:15:42.308Z,100611.25
2023-01-13T15:18:45.652Z,100614.25
2023-01-13T15:21:48.373Z,100618.03
2023-01-13T15:24:51.208Z,100621.81
2023-01-13T15:27:53.821Z,100624.63
2023-01-13T15:31:00.718Z,100618.16
2023-01-13T15:34:03.254Z,100623.44
2023-01-13T15:37:05.786Z,100613.50
2023-01-13T15:40:18.832Z,100609.72
2023-01-13T15:43:42.062Z,100604.91
2023-01-13T15:46:45.289Z,100620.16
2023-01-13T15:49:47.991Z,100630.09
2023-01-13T15:52:50.487Z,100619.66
2023-01-13T15:55:56.834Z,100629.44
2023-01-13T15:58:59.441Z,100634.59
2023-01-13T16:02:02.139Z,100641.34
2023-01-13T16:05:05.858Z,100640.56
2023-01-13T16:08:15.558Z,100641.22
2023-01-13T16:11:18.029Z,100637.28
2023-01-13T16:14:20.558Z,100638.41
2023-01-13T16:17:25.284Z,100640.53
2023-01-13T16:20:29.953Z,100637.03
2023-01-13T16:23:32.556Z,100635.28
2023-01-13T16:26:37.614Z,100635.72
2023-01-13T16:29:40.273Z,100635.03
2023-01-13T16:32:42.763Z,100642.97
2023-01-13T16:36:11.683Z,100642.19
2023-01-13T16:39:20.577Z,100647.31
2023-01-13T16:42:23.169Z,100650.16
2023-01-13T16:45:26.692Z,100647.03
2023-01-13T16:48:29.285Z,100646.91
2023-01-13T16:51:33.317Z,100644.94
2023-01-13T16:54:35.764Z,100642.13
2023-01-13T16:57:38.225Z,100640.63
2023-01-13T17:00:41.483Z,100654.53
2023-01-13T17:03:44.562Z,100657.69
2023-01-13T17:07:00.546Z,100657.38
2023-01-13T17:10:03.794Z,100657.53
2023-01-13T17:13:15.624Z,100662.53
2023-01-13T17:16:22.406Z,100654.34
2023-01-13T17:19:26.117Z,100651.03
2023-01-13T17:22:30.831Z,100650.72
2023-01-13T17:25:33.320Z,100658.53
2023-01-13T17:28:35.868Z,100657.53
2023-01-13T17:31:39.098Z,100655.06
2023-01-13T17:34:41.639Z,100655.53
2023-01-13T17:37:44.247Z,100662.19
2023-01-13T17:40:46.872Z,100661.84
2023-01-13T17:43:50.508Z,100658.34
2023-01-13T17:46:52.957Z,100663.34
2023-01-13T17:49:55.768Z,100677.44
2023-01-13T17:52:58.213Z,100683.91
2023-01-13T17:56:00.675Z,100669.66
2023-01-13T17:59:03.204Z,100671.34
2023-01-13T18:02:06.040Z,100673.97
2023-01-13T18:05:09.301Z,100674.16
2023-01-13T18:08:11.802Z,100672.81
2023-01-13T18:11:18.761Z,100667.34
2023-01-13T18:14:23.101Z,100660.25
2023-01-13T18:17:25.566Z,100670.03
2023-01-13T18:20:49.157Z,100672.66
2023-01-13T18:24:15.556Z,100675.84
2023-01-13T18:27:26.547Z,100678.97
2023-01-13T18:30:29.937Z,100674.16
2023-01-13T18:33:32.464Z,100675.31
2023-01-13T18:36:35.134Z,100675.31
2023-01-13T18:39:37.914Z,100678.31
2023-01-13T18:42:56.220Z,100671.69
2023-01-13T18:45:58.865Z,100676.66
2023-01-13T18:49:01.686Z,100682.97
2023-01-13T18:52:04.628Z,100682.28
2023-01-13T18:55:07.434Z,100670.19
2023-01-13T18:58:10.489Z,100673.38
2023-01-13T19:01:13.064Z,100681.31
2023-01-13T19:04:16.993Z,100682.94
2023-01-13T19:07:24.348Z,100682.78
2023-01-13T19:10:31.879Z,100688.25
2023-01-13T19:13:37.269Z,100685.09
2023-01-13T19:16:40.096Z,100684.44
2023-01-13T19:19:48.417Z,100682.28
2023-01-13T19:22:54.334Z,100680.97
2023-01-13T19:26:05.005Z,100690.41
2023-01-13T19:29:08.676Z,100694.88
2023-01-13T19:32:12.718Z,100696.91
2023-01-13T19:35:18.037Z,100701.19
2023-01-13T19:38:21.699Z,100703.19
2023-01-13T19:41:47.064Z,100713.59
2023-01-13T19:45:10.246Z,100717.91
2023-01-13T19:48:16.054Z,100722.22
2023-01-13T19:51:18.699Z,100726.19
2023-01-13T19:54:21.513Z,100739.44
2023-01-13T19:57:25.729Z,100737.97
2023-01-13T20:00:29.256Z,100739.44
2023-01-13T20:03:35.907Z,100736.09
2023-01-13T20:06:38.599Z,100749.69
2023-01-13T20:09:45.151Z,100736.78
2023-01-13T20:12:48.227Z,100749.03
2023-01-13T20:15:51.003Z,100735.47
2023-01-13T20:18:54.118Z,100736.09
2023-01-13T20:21:56.741Z,100727.47
2023-01-13T20:24:59.260Z,100721.31
2023-01-13T20:28:02.542Z,100713.34
2023-01-13T20:31:09.767Z,100731.13
2023-01-13T20:34:14.605Z,100754.31
2023-01-13T20:37:17.134Z,100782.00
2023-01-13T20:40:20.882Z,100795.97
2023-01-13T20:43:23.554Z,100786.63
2023-01-13T20:46:26.181Z,100777.38
2023-01-13T20:49:30.305Z,100761.00
2023-01-13T20:52:33.603Z,100759.19
2023-01-13T20:55:38.982Z,100742.88
2023-01-13T20:58:41.861Z,100745.00
2023-01-13T21:01:44.687Z,100740.72
2023-01-13T21:04:47.230Z,100728.78
2023-01-13T21:07:49.979Z,100730.78
2023-01-13T21:11:00.104Z,100725.97
2023-01-13T21:14:21.534Z,100732.91
2023-01-13T21:17:42.350Z,100733.41
2023-01-13T21:20:45.182Z,100732.59
2023-01-13T21:23:52.794Z,100737.41
2023-01-13T21:27:00.360Z,100737.06
2023-01-13T21:30:03.022Z,100734.41
2023-01-13T21:33:06.835Z,100723.66
2023-01-13T21:36:12.699Z,100708.06
2023-01-13T21:39:16.086Z,100708.56
2023-01-13T21:42:37.004Z,100722.81
2023-01-13T21:45:58.195Z,100730.00
2023-01-13T21:49:00.817Z,100706.47
2023-01-13T21:52:03.517Z,100706.78
2023-01-13T21:55:23.702Z,100699.97
2023-01-13T21:58:26.223Z,100703.13
2023-01-13T22:01:28.809Z,100688.53
2023-01-13T22:04:33.297Z,100687.22
2023-01-13T22:07:36.997Z,100704.44
2023-01-13T22:10:58.413Z,100717.72
2023-01-13T22:14:07.086Z,100757.19
2023-01-13T22:17:09.530Z,100789.44
2023-01-13T22:20:13.356Z,100796.03
2023-01-13T22:23:17.203Z,100824.00
2023-01-13T22:26:19.741Z,100837.25
2023-01-13T22:29:22.229Z,100837.88
2023-01-13T22:32:24.820Z,100832.84
2023-01-13T22:35:27.617Z,100831.69
2023-01-13T22:38:30.133Z,100823.00
2023-01-13T22:41:32.732Z,100817.03
2023-01-13T22:44:35.337Z,100812.00
2023-01-13T22:47:38.048Z,100795.81
2023-01-13T22:50:40.479Z,100779.34
2023-01-13T22:53:43.498Z,100792.41
2023-01-13T22:56:45.977Z,100766.94
2023-01-13T22:59:48.754Z,100767.25
2023-01-13T23:02:51.312Z,100755.16
2023-01-13T23:05:57.436Z,100763.63
2023-01-13T23:09:00.351Z,100754.84
2023-01-13T23:12:03.187Z,100759.34
2023-01-13T23:15:06.128Z,100752.25
2023-01-13T23:18:08.596Z,100744.66
2023-01-13T23:21:13.716Z,100752.09
2023-01-13T23:24:16.245Z,100747.31
2023-01-13T23:27:18.947Z,100730.25
2023-01-13T23:30:22.416Z,100726.75
2023-01-13T23:33:25.454Z,100728.88
2023-01-13T23:36:28.963Z,100729.69
2023-01-13T23:39:31.783Z,100742.25
2023-01-13T23:42:34.360Z,100747.41
2023-01-13T23:45:37.584Z,100741.59
2023-01-13T23:48:40.385Z,100737.63
2023-01-13T23:51:42.899Z,100744.25
2023-01-13T23:54:45.620Z,100744.41
2023-01-13T23:57:48.117Z,100755.06
